createdAt,value
2022-10-29T00:01:33.114Z,7.88
2022-10-29T00:04:02.429Z,7.65
2022-10-29T00:06:31.710Z,8.20
2022-10-29T00:09:00.988Z,7.63
2022-10-29T00:11:30.246Z,7.57
2022-10-29T00:14:02.227Z,7.55
2022-10-29T00:16:37.682Z,7.72
2022-10-29T00:19:07.794Z,7.30
2022-10-29T00:21:38.128Z,7.80
2022-10-29T00:24:07.962Z,7.50
2022-10-29T00:26:37.354Z,7.88
2022-10-29T00:29:06.642Z,6.90
2022-10-29T00:31:35.943Z,8.00
2022-10-29T00:34:05.489Z,9.00
2022-10-29T00:36:34.749Z,7.90
2022-10-29T00:39:04.007Z,7.70
2022-10-29T00:41:33.301Z,7.93
2022-10-29T00:44:17.743Z,7.68
2022-10-29T00:46:50.635Z,7.60
2022-10-29T00:49:21.169Z,7.20
2022-10-29T00:51:51.205Z,7.85
2022-10-29T00:54:21.718Z,7.70
2022-10-29T00:56:56.734Z,7.43
2022-10-29T00:59:27.273Z,8.25
2022-10-29T01:01:57.085Z,7.20
2022-10-29T01:04:27.501Z,7.70
2022-10-29T01:06:57.542Z,8.02
2022-10-29T01:09:26.793Z,8.52
2022-10-29T01:12:22.697Z,7.72
2022-10-29T01:15:13.717Z,8.45
2022-10-29T01:18:04.778Z,8.77
2022-10-29T01:20:42.272Z,8.20
2022-10-29T01:23:36.026Z,7.75
2022-10-29T01:26:18.146Z,7.50
2022-10-29T01:29:18.215Z,8.50
2022-10-29T01:32:13.916Z,8.05
2022-10-29T01:35:00.829Z,7.18
2022-10-29T01:37:52.232Z,8.18
2022-10-29T01:40:30.383Z,8.30
2022-10-29T01:43:23.169Z,8.15
2022-10-29T01:48:33.342Z,9.07
2022-10-29T01:51:08.741Z,7.35
2022-10-29T01:53:41.010Z,8.23
2022-10-29T01:58:42.172Z,8.18
2022-10-29T02:01:45.920Z,8.07
2022-10-29T02:04:56.325Z,7.47
2022-10-29T02:07:37.138Z,7.65
2022-10-29T02:10:22.081Z,8.32
2022-10-29T02:12:57.159Z,8.30
2022-10-29T02:15:44.921Z,7.22
2022-10-29T02:18:14.374Z,7.72
2022-10-29T02:20:48.127Z,7.85
2022-10-29T02:23:18.740Z,7.82
2022-10-29T02:25:48.121Z,8.70
2022-10-29T02:28:17.564Z,9.60
2022-10-29T02:30:46.921Z,8.20
2022-10-29T02:33:16.283Z,8.27
2022-10-29T02:35:45.580Z,8.60
2022-10-29T02:38:14.957Z,8.02
2022-10-29T02:40:44.218Z,8.13
2022-10-29T02:43:13.577Z,8.82
2022-10-29T02:45:42.990Z,8.65
2022-10-29T02:48:12.289Z,8.70
2022-10-29T02:50:41.627Z,8.32
2022-10-29T02:53:10.967Z,8.75
2022-10-29T02:55:40.288Z,9.80
2022-10-29T02:58:09.571Z,9.73
2022-10-29T03:00:38.905Z,8.82
2022-10-29T03:03:08.177Z,9.07
2022-10-29T03:05:37.425Z,8.68
2022-10-29T03:08:06.887Z,8.70
2022-10-29T03:10:36.183Z,9.63
2022-10-29T03:13:05.581Z,8.90
2022-10-29T03:15:34.837Z,8.50
2022-10-29T03:18:04.216Z,8.32
2022-10-29T03:20:34.112Z,8.75
2022-10-29T03:23:03.413Z,9.30
2022-10-29T03:25:32.746Z,9.07
2022-10-29T03:28:02.955Z,10.73
2022-10-29T03:30:32.389Z,9.30
2022-10-29T03:33:01.634Z,8.90
2022-10-29T03:35:30.988Z,8.48
2022-10-29T03:38:00.301Z,9.32
2022-10-29T03:40:29.575Z,8.75
2022-10-29T03:42:59.163Z,9.18
2022-10-29T03:45:28.582Z,8.38
2022-10-29T03:47:58.151Z,8.82
2022-10-29T03:50:27.682Z,10.10
2022-10-29T03:52:56.967Z,9.40
2022-10-29T03:55:29.146Z,8.30
2022-10-29T03:57:59.167Z,8.50
2022-10-29T04:00:28.591Z,8.82
2022-10-29T04:02:58.248Z,9.20
2022-10-29T04:05:27.979Z,8.18
2022-10-29T04:08:00.042Z,8.05
2022-10-29T04:10:31.315Z,7.97
2022-10-29T04:13:00.630Z,7.80
2022-10-29T04:15:29.936Z,7.82
2022-10-29T04:17:59.512Z,7.50
2022-10-29T04:20:56.390Z,7.95
2022-10-29T04:28:58.058Z,7.50
2022-10-29T04:31:29.088Z,6.60
2022-10-29T04:34:01.034Z,7.68
2022-10-29T04:36:30.280Z,8.02
2022-10-29T04:38:59.656Z,8.63
2022-10-29T04:41:28.957Z,7.72
2022-10-29T04:44:00.856Z,8.32
2022-10-29T04:46:30.253Z,8.93
2022-10-29T04:48:59.771Z,7.47
2022-10-29T04:51:29.798Z,7.85
2022-10-29T04:54:02.258Z,7.68
2022-10-29T04:56:33.160Z,8.10
2022-10-29T04:59:02.504Z,7.60
2022-10-29T05:01:32.849Z,8.15
2022-10-29T05:04:04.840Z,8.93
2022-10-29T05:06:34.110Z,8.23
2022-10-29T05:09:03.434Z,7.55
2022-10-29T05:11:32.728Z,8.90
2022-10-29T05:14:02.081Z,8.65
2022-10-29T05:16:31.380Z,9.48
2022-10-29T05:19:00.665Z,9.55
2022-10-29T05:21:30.047Z,8.82
2022-10-29T05:23:59.425Z,9.38
2022-10-29T05:26:28.724Z,9.10
2022-10-29T05:28:58.003Z,8.55
2022-10-29T05:31:27.617Z,9.88
2022-10-29T05:33:56.875Z,8.77
2022-10-29T05:36:26.150Z,10.63
2022-10-29T05:38:55.415Z,10.80
2022-10-29T05:41:24.699Z,9.90
2022-10-29T05:43:53.996Z,10.25
2022-10-29T05:46:23.285Z,9.82
2022-10-29T05:48:52.579Z,10.18
2022-10-29T05:51:22.127Z,9.25
2022-10-29T05:53:51.726Z,8.88
2022-10-29T05:56:21.002Z,8.82
2022-10-29T05:58:53.513Z,8.68
2022-10-29T06:01:22.860Z,8.23
2022-10-29T06:06:22.520Z,8.13
2022-10-29T06:08:51.838Z,8.65
2022-10-29T06:11:21.351Z,8.07
2022-10-29T06:13:50.614Z,8.32
2022-10-29T06:16:19.901Z,7.90
2022-10-29T06:18:49.158Z,7.90
2022-10-29T06:21:18.458Z,10.30
2022-10-29T06:23:47.685Z,8.82
2022-10-29T06:26:17.122Z,7.97
2022-10-29T06:28:46.401Z,8.38
2022-10-29T06:31:15.653Z,8.65
2022-10-29T06:33:45.027Z,8.70
2022-10-29T06:36:14.410Z,8.32
2022-10-29T06:38:43.688Z,8.55
2022-10-29T06:41:12.980Z,8.48
2022-10-29T06:43:42.521Z,8.13
2022-10-29T06:46:11.854Z,8.18
2022-10-29T06:48:41.115Z,7.50
2022-10-29T06:51:10.412Z,8.52
2022-10-29T06:53:39.767Z,7.43
2022-10-29T06:56:09.306Z,8.60
2022-10-29T06:58:38.636Z,7.85
2022-10-29T07:01:08.041Z,8.32
2022-10-29T07:03:37.304Z,8.25
2022-10-29T07:06:06.838Z,8.27
2022-10-29T07:08:36.165Z,8.20
2022-10-29T07:11:05.548Z,8.60
2022-10-29T07:13:34.829Z,7.93
2022-10-29T07:16:04.455Z,7.78
2022-10-29T07:18:33.709Z,8.90
2022-10-29T07:21:05.577Z,8.30
2022-10-29T07:23:34.861Z,7.70
2022-10-29T07:26:04.228Z,7.63
2022-10-29T07:28:33.508Z,8.32
2022-10-29T07:31:04.025Z,8.20
2022-10-29T07:33:33.578Z,8.50
2022-10-29T07:36:03.191Z,8.60
2022-10-29T07:38:35.122Z,8.07
2022-10-29T07:41:04.409Z,9.77
2022-10-29T07:43:33.641Z,8.85
2022-10-29T07:46:04.098Z,8.77
2022-10-29T07:48:33.415Z,8.63
2022-10-29T07:51:03.706Z,8.73
2022-10-29T07:53:33.844Z,9.73
2022-10-29T07:56:03.907Z,8.48
2022-10-29T07:58:33.239Z,8.07
2022-10-29T08:01:02.932Z,9.07
2022-10-29T08:03:33.930Z,7.93
2022-10-29T08:06:03.858Z,7.93
2022-10-29T08:08:34.955Z,8.30
2022-10-29T08:11:05.834Z,7.65
2022-10-29T08:13:35.626Z,7.35
2022-10-29T08:16:04.874Z,8.13
2022-10-29T08:18:34.109Z,7.15
2022-10-29T08:21:07.574Z,6.65
2022-10-29T08:23:36.860Z,7.00
2022-10-29T08:26:06.170Z,7.68
2022-10-29T08:28:35.986Z,7.68
2022-10-29T08:31:05.620Z,8.38
2022-10-29T08:33:34.893Z,7.82
2022-10-29T08:36:04.198Z,6.57
2022-10-29T08:38:33.446Z,7.78
2022-10-29T08:41:14.012Z,6.63
2022-10-29T08:46:57.398Z,6.95
2022-10-29T08:49:35.044Z,6.07
2022-10-29T08:52:14.073Z,7.20
2022-10-29T08:54:46.747Z,7.38
2022-10-29T08:57:21.825Z,7.28
2022-10-29T09:00:23.105Z,7.82
2022-10-29T09:03:00.089Z,7.28
2022-10-29T09:05:48.819Z,6.95
2022-10-29T09:08:34.473Z,6.82
2022-10-29T09:11:18.674Z,7.20
2022-10-29T09:14:13.589Z,6.30
2022-10-29T09:16:58.208Z,8.63
2022-10-29T09:19:56.518Z,6.57
2022-10-29T09:22:36.142Z,6.45
2022-10-29T09:25:32.527Z,6.30
2022-10-29T09:28:20.049Z,6.18
2022-10-29T09:31:16.788Z,7.00
2022-10-29T09:33:55.249Z,6.75
2022-10-29T09:36:27.529Z,6.85
2022-10-29T09:39:03.662Z,5.53
2022-10-29T09:41:37.417Z,5.68
2022-10-29T09:44:19.364Z,6.88
2022-10-29T09:47:18.054Z,5.72
2022-10-29T09:50:05.195Z,5.28
2022-10-29T09:52:42.491Z,6.28
2022-10-29T09:55:21.436Z,5.60
2022-10-29T09:57:50.924Z,4.95
2022-10-29T10:00:23.972Z,5.55
2022-10-29T10:03:01.204Z,5.20
2022-10-29T10:05:36.363Z,4.93
2022-10-29T10:08:09.084Z,4.30
2022-10-29T10:10:54.571Z,6.03
2022-10-29T10:13:27.884Z,6.00
2022-10-29T10:16:06.124Z,5.35
2022-10-29T10:18:35.406Z,4.65
2022-10-29T10:21:10.741Z,4.97
2022-10-29T10:23:46.759Z,6.43
2022-10-29T10:26:36.834Z,4.75
2022-10-29T10:29:23.648Z,5.65
2022-10-29T10:32:13.486Z,5.32
2022-10-29T10:34:42.827Z,6.22
2022-10-29T10:37:12.011Z,5.78
2022-10-29T10:39:55.219Z,5.68
2022-10-29T10:42:37.298Z,4.88
2022-10-29T10:45:27.611Z,5.65
2022-10-29T10:47:59.961Z,4.53
2022-10-29T10:50:35.485Z,5.68
2022-10-29T10:53:09.906Z,5.50
2022-10-29T10:55:41.020Z,5.05
2022-10-29T10:58:24.168Z,5.28
2022-10-29T11:00:58.643Z,5.30
2022-10-29T11:03:35.381Z,5.85
2022-10-29T11:06:15.769Z,5.22
2022-10-29T11:09:23.847Z,5.10
2022-10-29T11:11:59.970Z,6.63
2022-10-29T11:14:36.707Z,5.18
2022-10-29T11:17:10.898Z,5.53
2022-10-29T11:19:48.578Z,5.68
2022-10-29T11:22:26.599Z,5.25
2022-10-29T11:25:02.002Z,4.65
2022-10-29T11:27:50.261Z,5.05
2022-10-29T11:30:22.241Z,4.47
2022-10-29T11:36:24.388Z,5.30
2022-10-29T11:39:00.058Z,4.82
2022-10-29T11:41:29.331Z,4.85
2022-10-29T11:43:58.612Z,4.72
2022-10-29T11:46:48.320Z,4.75
2022-10-29T11:49:56.465Z,4.72
2022-10-29T11:52:35.802Z,4.43
2022-10-29T11:55:20.510Z,4.53
2022-10-29T11:58:05.010Z,5.47
2022-10-29T12:00:51.628Z,4.30
2022-10-29T12:03:39.786Z,4.63
2022-10-29T12:06:20.123Z,5.07
2022-10-29T12:09:43.637Z,4.55
2022-10-29T12:12:23.453Z,4.47
2022-10-29T12:15:19.948Z,5.30
2022-10-29T12:18:03.965Z,3.80
2022-10-29T12:20:55.187Z,4.55
2022-10-29T12:23:58.086Z,4.85
2022-10-29T12:26:44.358Z,4.20
2022-10-29T12:29:47.410Z,4.38
2022-10-29T12:32:25.672Z,3.78
2022-10-29T12:35:02.933Z,4.28
2022-10-29T12:37:58.454Z,4.20
2022-10-29T12:40:32.951Z,3.60
2022-10-29T12:43:08.414Z,3.63
2022-10-29T12:46:21.494Z,4.43
2022-10-29T12:48:54.799Z,4.10
2022-10-29T12:52:02.020Z,4.70
2022-10-29T12:54:48.752Z,4.07
2022-10-29T12:57:17.948Z,3.40
2022-10-29T12:59:47.884Z,4.13
2022-10-29T13:02:38.901Z,5.05
2022-10-29T13:05:11.618Z,4.60
2022-10-29T13:07:50.110Z,4.15
2022-10-29T13:10:26.345Z,3.60
2022-10-29T13:13:01.677Z,3.22
2022-10-29T13:15:39.228Z,4.60
2022-10-29T13:18:20.438Z,3.45
2022-10-29T13:20:52.905Z,3.60
2022-10-29T13:23:25.197Z,4.22
2022-10-29T13:26:02.127Z,3.88
2022-10-29T13:28:31.411Z,3.15
2022-10-29T13:31:06.673Z,4.18
2022-10-29T13:33:35.890Z,3.72
2022-10-29T13:36:28.234Z,4.00
2022-10-29T13:41:43.451Z,4.00
2022-10-29T13:44:15.475Z,3.83
2022-10-29T13:47:01.108Z,3.83
2022-10-29T13:49:35.583Z,3.70
2022-10-29T13:52:19.437Z,3.80
2022-10-29T13:54:54.820Z,4.15
2022-10-29T13:57:29.057Z,3.55
2022-10-29T14:00:09.506Z,3.45
2022-10-29T14:02:44.941Z,3.78
2022-10-29T14:05:14.356Z,3.75
2022-10-29T14:07:57.894Z,3.42
2022-10-29T14:10:32.924Z,3.75
2022-10-29T14:13:14.158Z,4.78
2022-10-29T14:16:06.203Z,3.65
2022-10-29T14:18:36.909Z,3.92
2022-10-29T14:21:09.223Z,4.55
2022-10-29T14:23:40.951Z,4.18
2022-10-29T14:29:26.801Z,4.28
2022-10-29T14:32:09.170Z,4.63
2022-10-29T14:34:38.475Z,4.60
2022-10-29T14:37:15.646Z,4.38
2022-10-29T14:40:00.422Z,3.72
2022-10-29T14:42:49.704Z,3.15
2022-10-29T14:45:28.530Z,4.18
2022-10-29T14:48:05.405Z,3.67
2022-10-29T14:50:34.678Z,3.80
2022-10-29T14:53:09.286Z,5.05
2022-10-29T14:55:49.187Z,4.00
2022-10-29T14:58:31.612Z,4.25
2022-10-29T15:01:05.966Z,3.88
2022-10-29T15:03:37.630Z,3.63
2022-10-29T15:06:24.488Z,4.45
2022-10-29T15:09:01.234Z,4.43
2022-10-29T15:11:44.677Z,4.88
2022-10-29T15:14:53.640Z,4.35
2022-10-29T15:17:34.439Z,4.30
2022-10-29T15:20:09.156Z,5.53
2022-10-29T15:22:42.773Z,4.65
2022-10-29T15:25:25.344Z,3.97
2022-10-29T15:27:55.194Z,4.97
2022-10-29T15:30:35.134Z,4.85
2022-10-29T15:33:08.352Z,4.30
2022-10-29T15:35:38.515Z,4.43
2022-10-29T15:38:07.766Z,4.75
2022-10-29T15:40:37.055Z,4.40
2022-10-29T15:43:32.366Z,5.03
2022-10-29T15:46:01.680Z,5.65
2022-10-29T15:48:38.060Z,5.03
2022-10-29T15:51:07.470Z,4.97
2022-10-29T15:53:37.993Z,4.22
2022-10-29T15:56:07.978Z,4.47
2022-10-29T15:58:37.255Z,4.75
2022-10-29T16:01:06.627Z,4.35
2022-10-29T16:03:39.547Z,4.32
2022-10-29T16:06:11.143Z,3.92
2022-10-29T16:08:47.206Z,5.38
2022-10-29T16:11:20.118Z,5.43
2022-10-29T16:13:54.399Z,5.55
2022-10-29T16:16:27.590Z,5.22
2022-10-29T16:21:28.314Z,5.57
2022-10-29T16:23:57.633Z,4.32
2022-10-29T16:26:28.578Z,5.47
2022-10-29T16:28:57.835Z,4.63
2022-10-29T16:31:31.717Z,4.82
2022-10-29T16:34:04.030Z,4.45
2022-10-29T16:36:35.904Z,4.43
2022-10-29T16:39:05.165Z,4.78
2022-10-29T16:41:36.312Z,4.22
2022-10-29T16:44:05.598Z,4.88
2022-10-29T16:46:34.901Z,5.13
2022-10-29T16:49:04.200Z,5.05
2022-10-29T16:51:33.436Z,4.53
2022-10-29T16:54:02.653Z,4.88
2022-10-29T16:56:31.898Z,4.93
2022-10-29T16:59:02.222Z,6.30
2022-10-29T17:01:31.608Z,4.35
2022-10-29T17:04:00.916Z,4.53
2022-10-29T17:06:30.225Z,4.30
2022-10-29T17:08:59.538Z,4.40
2022-10-29T17:11:28.804Z,5.32
2022-10-29T17:13:58.084Z,4.75
2022-10-29T17:16:27.409Z,5.60
2022-10-29T17:18:58.228Z,5.10
2022-10-29T17:21:27.631Z,4.82
2022-10-29T17:23:56.897Z,6.00
2022-10-29T17:26:26.188Z,4.45
2022-10-29T17:28:55.427Z,4.85
2022-10-29T17:31:25.612Z,5.03
2022-10-29T17:33:54.910Z,4.45
2022-10-29T17:36:24.260Z,4.43
2022-10-29T17:38:53.701Z,4.97
2022-10-29T17:41:22.985Z,5.50
2022-10-29T17:43:52.281Z,5.18
2022-10-29T17:46:21.542Z,4.85
2022-10-29T17:48:50.806Z,4.43
2022-10-29T17:51:20.057Z,4.30
2022-10-29T17:53:49.298Z,4.53
2022-10-29T17:56:18.605Z,4.82
2022-10-29T17:58:47.963Z,4.28
2022-10-29T18:01:17.394Z,4.75
2022-10-29T18:03:46.904Z,4.47
2022-10-29T18:06:16.731Z,4.55
2022-10-29T18:08:46.205Z,4.32
2022-10-29T18:11:20.995Z,6.15
2022-10-29T18:13:52.037Z,4.43
2022-10-29T18:16:25.893Z,5.13
2022-10-29T18:19:01.700Z,4.53
2022-10-29T18:21:32.985Z,4.97
2022-10-29T18:24:02.301Z,4.68
2022-10-29T18:26:33.919Z,5.22
2022-10-29T18:29:06.397Z,5.65
2022-10-29T18:31:36.562Z,4.63
2022-10-29T18:34:09.154Z,4.53
2022-10-29T18:36:38.933Z,5.07
2022-10-29T18:39:08.950Z,4.68
2022-10-29T18:41:39.573Z,5.50
2022-10-29T18:44:09.372Z,5.50
2022-10-29T18:46:38.646Z,5.57
2022-10-29T18:49:07.922Z,5.28
2022-10-29T18:51:37.157Z,5.43
2022-10-29T18:54:06.624Z,5.55
2022-10-29T18:59:08.160Z,5.97
2022-10-29T19:01:39.349Z,5.72
2022-10-29T19:04:11.149Z,5.07
2022-10-29T19:06:40.662Z,4.78
2022-10-29T19:09:11.785Z,4.95
2022-10-29T19:11:41.730Z,5.50
2022-10-29T19:14:15.287Z,4.80
2022-10-29T19:16:44.568Z,5.25
2022-10-29T19:19:18.385Z,6.68
2022-10-29T19:21:50.678Z,5.60
2022-10-29T19:24:20.025Z,6.15
2022-10-29T19:26:49.565Z,5.53
2022-10-29T19:29:18.838Z,5.32
2022-10-29T19:31:48.637Z,5.15
2022-10-29T19:34:18.046Z,5.90
2022-10-29T19:36:47.362Z,5.10
2022-10-29T19:39:16.600Z,5.85
2022-10-29T19:41:45.852Z,5.60
2022-10-29T19:44:15.181Z,5.80
2022-10-29T19:46:44.815Z,5.60
2022-10-29T19:49:14.054Z,4.25
2022-10-29T19:51:44.933Z,5.82
2022-10-29T19:54:14.338Z,6.03
2022-10-29T19:56:43.569Z,6.38
2022-10-29T19:59:12.882Z,5.13
2022-10-29T20:01:43.798Z,5.88
2022-10-29T20:04:13.330Z,5.72
2022-10-29T20:06:43.211Z,5.85
2022-10-29T20:09:12.565Z,5.95
2022-10-29T20:11:41.882Z,6.15
2022-10-29T20:14:11.175Z,5.60
2022-10-29T20:16:41.066Z,5.22
2022-10-29T20:19:10.378Z,6.35
2022-10-29T20:21:39.677Z,5.78
2022-10-29T20:24:09.094Z,6.70
2022-10-29T20:26:38.351Z,5.43
2022-10-29T20:29:07.653Z,5.15
2022-10-29T20:31:41.135Z,5.70
2022-10-29T20:34:11.858Z,5.70
2022-10-29T20:36:41.318Z,5.88
2022-10-29T20:39:13.190Z,5.38
2022-10-29T20:41:46.166Z,5.15
2022-10-29T20:44:15.451Z,5.40
2022-10-29T20:46:44.780Z,5.95
2022-10-29T20:49:14.224Z,5.72
2022-10-29T20:51:43.485Z,6.07
2022-10-29T20:54:12.897Z,5.13
2022-10-29T20:56:42.273Z,5.28
2022-10-29T20:59:11.576Z,6.05
2022-10-29T21:01:40.959Z,5.60
2022-10-29T21:04:10.301Z,7.05
2022-10-29T21:06:39.606Z,5.07
2022-10-29T21:09:08.912Z,5.90
2022-10-29T21:11:38.223Z,5.40
2022-10-29T21:14:08.267Z,6.05
2022-10-29T21:16:37.553Z,6.20
2022-10-29T21:19:08.764Z,6.35
2022-10-29T21:21:38.080Z,6.30
2022-10-29T21:24:07.583Z,5.80
2022-10-29T21:26:36.889Z,5.65
2022-10-29T21:29:06.245Z,5.72
2022-10-29T21:31:35.525Z,6.80
2022-10-29T21:34:04.963Z,6.07
2022-10-29T21:36:34.308Z,5.85
2022-10-29T21:39:03.589Z,6.70
2022-10-29T21:41:32.940Z,5.35
2022-10-29T21:44:02.373Z,5.43
2022-10-29T21:46:31.680Z,5.90
2022-10-29T21:49:00.925Z,6.05
2022-10-29T21:51:30.275Z,6.47
2022-10-29T21:53:59.676Z,6.40
2022-10-29T21:56:28.927Z,6.43
2022-10-29T21:59:00.324Z,5.72
2022-10-29T22:01:32.354Z,6.57
2022-10-29T22:04:02.883Z,5.85
2022-10-29T22:06:35.191Z,5.80
2022-10-29T22:11:33.738Z,5.93
2022-10-29T22:14:03.055Z,5.53
2022-10-29T22:16:32.570Z,6.15
2022-10-29T22:19:01.818Z,5.40
2022-10-29T22:21:33.060Z,6.22
2022-10-29T22:24:05.875Z,5.78
2022-10-29T22:26:35.142Z,6.03
2022-10-29T22:29:04.460Z,5.63
2022-10-29T22:31:33.767Z,5.32
2022-10-29T22:34:03.113Z,5.72
2022-10-29T22:36:33.029Z,5.85
2022-10-29T22:39:04.204Z,5.53
2022-10-29T22:41:33.753Z,5.60
2022-10-29T22:44:03.077Z,5.47
2022-10-29T22:46:33.506Z,6.10
2022-10-29T22:49:03.939Z,5.63
2022-10-29T22:51:35.309Z,5.40
2022-10-29T22:54:04.904Z,5.97
2022-10-29T22:56:40.774Z,5.78
2022-10-29T22:59:10.527Z,5.32
2022-10-29T23:01:44.243Z,7.15
2022-10-29T23:04:15.688Z,5.50
2022-10-29T23:06:47.723Z,5.82
2022-10-29T23:09:17.039Z,6.03
2022-10-29T23:11:46.838Z,5.25
2022-10-29T23:14:16.175Z,5.70
2022-10-29T23:16:45.504Z,5.47
2022-10-29T23:19:14.832Z,5.72
2022-10-29T23:21:44.143Z,5.80
2022-10-29T23:24:13.482Z,6.05
2022-10-29T23:26:42.865Z,5.90
2022-10-29T23:29:12.185Z,5.60
2022-10-29T23:31:41.506Z,5.53
2022-10-29T23:34:11.299Z,6.07
2022-10-29T23:36:40.654Z,5.57
2022-10-29T23:39:09.971Z,5.40
2022-10-29T23:41:39.236Z,6.03
2022-10-29T23:44:08.585Z,6.18
2022-10-29T23:46:37.830Z,7.70
2022-10-29T23:49:07.162Z,6.28
2022-10-29T23:51:36.473Z,6.10
2022-10-29T23:54:05.800Z,6.18
2022-10-29T23:56:35.095Z,6.28
2022-10-29T23:59:04.400Z,6.10
